sensor_id;sensor_type;location;lat;lon;timestamp;P1;durP1;ratioP1;P2;durP2;ratioP2
18188;SDS011;9219;50.396;8.546;2022-07-04T00:00:45;1.87;;;1.73;;
18188;SDS011;9219;50.396;8.546;2022-07-04T00:03:16;4.23;;;1.83;;
18188;SDS011;9219;50.396;8.546;2022-07-04T00:05:44;2.20;;;1.40;;
18188;SDS011;9219;50.396;8.546;2022-07-04T00:08:12;2.60;;;1.70;;
18188;SDS011;9219;50.396;8.546;2022-07-04T00:10:39;1.77;;;1.50;;
18188;SDS011;9219;50.396;8.546;2022-07-04T00:13:09;2.23;;;1.53;;
18188;SDS011;9219;50.396;8.546;2022-07-04T00:20:57;1.83;;;1.57;;
18188;SDS011;9219;50.396;8.546;2022-07-04T00:23:27;4.17;;;1.57;;
18188;SDS011;9219;50.396;8.546;2022-07-04T00:25:55;2.97;;;1.70;;
18188;SDS011;9219;50.396;8.546;2022-07-04T00:28:22;1.97;;;1.60;;
18188;SDS011;9219;50.396;8.546;2022-07-04T00:30:50;1.63;;;1.37;;
18188;SDS011;9219;50.396;8.546;2022-07-04T00:33:18;3.50;;;1.40;;
18188;SDS011;9219;50.396;8.546;2022-07-04T00:35:45;4.83;;;1.73;;
18188;SDS011;9219;50.396;8.546;2022-07-04T00:44:00;2.70;;;1.67;;
18188;SDS011;9219;50.396;8.546;2022-07-04T00:46:39;5.50;;;1.63;;
18188;SDS011;9219;50.396;8.546;2022-07-04T00:49:06;2.20;;;1.60;;
18188;SDS011;9219;50.396;8.546;2022-07-04T00:51:34;2.27;;;1.70;;
18188;SDS011;9219;50.396;8.546;2022-07-04T00:54:04;1.93;;;1.80;;
18188;SDS011;9219;50.396;8.546;2022-07-04T00:56:34;5.17;;;1.87;;
18188;SDS011;9219;50.396;8.546;2022-07-04T00:59:04;3.37;;;2.03;;
18188;SDS011;9219;50.396;8.546;2022-07-04T01:01:32;5.17;;;1.93;;
18188;SDS011;9219;50.396;8.546;2022-07-04T01:09:07;3.90;;;1.63;;
18188;SDS011;9219;50.396;8.546;2022-07-04T01:11:35;2.60;;;1.93;;
18188;SDS011;9219;50.396;8.546;2022-07-04T01:14:03;2.93;;;1.93;;
18188;SDS011;9219;50.396;8.546;2022-07-04T01:16:32;39.57;;;2.53;;
18188;SDS011;9219;50.396;8.546;2022-07-04T01:19:00;2.20;;;2.00;;
18188;SDS011;9219;50.396;8.546;2022-07-04T01:21:28;1.90;;;1.80;;
18188;SDS011;9219;50.396;8.546;2022-07-04T01:23:58;2.37;;;1.87;;
18188;SDS011;9219;50.396;8.546;2022-07-04T01:31:32;4.63;;;1.90;;
18188;SDS011;9219;50.396;8.546;2022-07-04T01:34:00;6.50;;;2.57;;
18188;SDS011;9219;50.396;8.546;2022-07-04T01:36:28;6.23;;;2.10;;
18188;SDS011;9219;50.396;8.546;2022-07-04T01:38:56;4.23;;;2.47;;
18188;SDS011;9219;50.396;8.546;2022-07-04T01:41:24;5.17;;;2.40;;
18188;SDS011;9219;50.396;8.546;2022-07-04T01:43:59;3.33;;;2.33;;
18188;SDS011;9219;50.396;8.546;2022-07-04T01:46:26;8.23;;;2.30;;
18188;SDS011;9219;50.396;8.546;2022-07-04T01:48:54;5.13;;;1.90;;
18188;SDS011;9219;50.396;8.546;2022-07-04T01:56:28;3.47;;;2.43;;
18188;SDS011;9219;50.396;8.546;2022-07-04T01:58:56;3.67;;;2.00;;
18188;SDS011;9219;50.396;8.546;2022-07-04T02:01:25;2.30;;;2.10;;
18188;SDS011;9219;50.396;8.546;2022-07-04T02:03:58;5.93;;;2.10;;
18188;SDS011;9219;50.396;8.546;2022-07-04T02:06:28;2.60;;;2.40;;
18188;SDS011;9219;50.396;8.546;2022-07-04T02:08:56;6.63;;;2.73;;
18188;SDS011;9219;50.396;8.546;2022-07-04T02:11:44;4.53;;;2.17;;
18188;SDS011;9219;50.396;8.546;2022-07-04T02:14:30;6.10;;;2.43;;
18188;SDS011;9219;50.396;8.546;2022-07-04T02:20:23;5.63;;;2.50;;
18188;SDS011;9219;50.396;8.546;2022-07-04T02:22:51;3.53;;;2.30;;
18188;SDS011;9219;50.396;8.546;2022-07-04T02:25:19;5.50;;;3.03;;
18188;SDS011;9219;50.396;8.546;2022-07-04T02:27:50;2.67;;;2.17;;
18188;SDS011;9219;50.396;8.546;2022-07-04T02:30:19;5.20;;;2.43;;
18188;SDS011;9219;50.396;8.546;2022-07-04T02:32:47;4.43;;;1.90;;
18188;SDS011;9219;50.396;8.546;2022-07-04T02:35:14;5.03;;;1.97;;
18188;SDS011;9219;50.396;8.546;2022-07-04T02:37:43;3.13;;;2.30;;
18188;SDS011;9219;50.396;8.546;2022-07-04T02:45:15;3.27;;;2.17;;
18188;SDS011;9219;50.396;8.546;2022-07-04T02:47:42;4.07;;;2.67;;
18188;SDS011;9219;50.396;8.546;2022-07-04T02:50:12;3.73;;;2.50;;
18188;SDS011;9219;50.396;8.546;2022-07-04T02:52:40;3.93;;;2.50;;
18188;SDS011;9219;50.396;8.546;2022-07-04T02:55:08;4.30;;;2.47;;
18188;SDS011;9219;50.396;8.546;2022-07-04T02:57:35;2.70;;;2.40;;
18188;SDS011;9219;50.396;8.546;2022-07-04T03:00:03;3.00;;;2.23;;
18188;SDS011;9219;50.396;8.546;2022-07-04T03:02:33;5.63;;;3.13;;
18188;SDS011;9219;50.396;8.546;2022-07-04T03:10:06;2.90;;;2.70;;
18188;SDS011;9219;50.396;8.546;2022-07-04T03:12:35;4.40;;;2.70;;
18188;SDS011;9219;50.396;8.546;2022-07-04T03:15:03;5.03;;;2.77;;
18188;SDS011;9219;50.396;8.546;2022-07-04T03:17:31;6.50;;;3.03;;
18188;SDS011;9219;50.396;8.546;2022-07-04T03:19:58;3.10;;;2.77;;
18188;SDS011;9219;50.396;8.546;2022-07-04T03:22:26;4.30;;;3.13;;
18188;SDS011;9219;50.396;8.546;2022-07-04T03:24:54;3.30;;;2.90;;
18188;SDS011;9219;50.396;8.546;2022-07-04T03:30:01;6.03;;;3.03;;
18188;SDS011;9219;50.396;8.546;2022-07-04T03:32:28;4.60;;;2.90;;
18188;SDS011;9219;50.396;8.546;2022-07-04T03:34:56;4.93;;;3.40;;
18188;SDS011;9219;50.396;8.546;2022-07-04T03:37:23;4.00;;;2.87;;
18188;SDS011;9219;50.396;8.546;2022-07-04T03:39:53;3.70;;;2.67;;
18188;SDS011;9219;50.396;8.546;2022-07-04T03:42:21;5.07;;;2.90;;
18188;SDS011;9219;50.396;8.546;2022-07-04T03:44:49;3.93;;;3.10;;
18188;SDS011;9219;50.396;8.546;2022-07-04T03:47:17;4.50;;;3.20;;
18188;SDS011;9219;50.396;8.546;2022-07-04T03:55:05;4.23;;;3.83;;
18188;SDS011;9219;50.396;8.546;2022-07-04T03:57:33;5.57;;;3.03;;
18188;SDS011;9219;50.396;8.546;2022-07-04T04:00:00;7.67;;;3.83;;
18188;SDS011;9219;50.396;8.546;2022-07-04T04:02:27;5.87;;;3.70;;
18188;SDS011;9219;50.396;8.546;2022-07-04T04:04:55;4.27;;;3.40;;
18188;SDS011;9219;50.396;8.546;2022-07-04T04:07:40;3.60;;;2.50;;
18188;SDS011;9219;50.396;8.546;2022-07-04T04:10:11;5.30;;;3.00;;
18188;SDS011;9219;50.396;8.546;2022-07-04T04:12:39;3.77;;;2.70;;
18188;SDS011;9219;50.396;8.546;2022-07-04T04:15:19;6.17;;;3.03;;
18188;SDS011;9219;50.396;8.546;2022-07-04T04:17:47;4.27;;;3.47;;
18188;SDS011;9219;50.396;8.546;2022-07-04T04:20:15;6.20;;;3.00;;
18188;SDS011;9219;50.396;8.546;2022-07-04T04:22:45;3.20;;;2.90;;
18188;SDS011;9219;50.396;8.546;2022-07-04T04:25:13;4.97;;;2.93;;
18188;SDS011;9219;50.396;8.546;2022-07-04T04:27:41;3.43;;;3.03;;
18188;SDS011;9219;50.396;8.546;2022-07-04T04:30:09;6.40;;;3.00;;
18188;SDS011;9219;50.396;8.546;2022-07-04T04:32:38;6.03;;;3.20;;
18188;SDS011;9219;50.396;8.546;2022-07-04T04:43:18;4.10;;;2.90;;
18188;SDS011;9219;50.396;8.546;2022-07-04T04:45:46;5.20;;;2.60;;
18188;SDS011;9219;50.396;8.546;2022-07-04T04:48:14;5.80;;;2.97;;
18188;SDS011;9219;50.396;8.546;2022-07-04T04:50:41;5.60;;;3.13;;
18188;SDS011;9219;50.396;8.546;2022-07-04T04:53:09;6.67;;;3.07;;
18188;SDS011;9219;50.396;8.546;2022-07-04T04:55:36;3.63;;;2.63;;
18188;SDS011;9219;50.396;8.546;2022-07-04T04:58:04;3.77;;;2.60;;
18188;SDS011;9219;50.396;8.546;2022-07-04T05:00:33;4.67;;;3.03;;
18188;SDS011;9219;50.396;8.546;2022-07-04T05:08:17;3.33;;;2.73;;
18188;SDS011;9219;50.396;8.546;2022-07-04T05:10:44;7.50;;;2.67;;
18188;SDS011;9219;50.396;8.546;2022-07-04T05:13:12;6.47;;;3.20;;
18188;SDS011;9219;50.396;8.546;2022-07-04T05:15:40;5.43;;;2.37;;
18188;SDS011;9219;50.396;8.546;2022-07-04T05:18:08;2.80;;;2.13;;
18188;SDS011;9219;50.396;8.546;2022-07-04T05:20:35;7.77;;;2.67;;
18188;SDS011;9219;50.396;8.546;2022-07-04T05:23:02;6.50;;;2.40;;
18188;SDS011;9219;50.396;8.546;2022-07-04T05:25:31;5.50;;;2.30;;
18188;SDS011;9219;50.396;8.546;2022-07-04T05:33:38;4.97;;;2.23;;
18188;SDS011;9219;50.396;8.546;2022-07-04T05:36:06;2.37;;;1.77;;
18188;SDS011;9219;50.396;8.546;2022-07-04T05:38:35;4.93;;;2.13;;
18188;SDS011;9219;50.396;8.546;2022-07-04T05:41:03;3.17;;;1.93;;
18188;SDS011;9219;50.396;8.546;2022-07-04T05:43:31;4.70;;;2.37;;
18188;SDS011;9219;50.396;8.546;2022-07-04T05:45:58;5.73;;;1.57;;
18188;SDS011;9219;50.396;8.546;2022-07-04T05:53:45;2.67;;;1.67;;
18188;SDS011;9219;50.396;8.546;2022-07-04T05:56:14;3.03;;;1.50;;
18188;SDS011;9219;50.396;8.546;2022-07-04T05:58:41;2.60;;;1.27;;
18188;SDS011;9219;50.396;8.546;2022-07-04T06:01:09;4.53;;;1.70;;
18188;SDS011;9219;50.396;8.546;2022-07-04T06:03:36;3.17;;;1.20;;
18188;SDS011;9219;50.396;8.546;2022-07-04T06:06:04;2.43;;;1.43;;
18188;SDS011;9219;50.396;8.546;2022-07-04T06:08:32;2.90;;;1.77;;
18188;SDS011;9219;50.396;8.546;2022-07-04T06:18:28;3.23;;;1.23;;
18188;SDS011;9219;50.396;8.546;2022-07-04T06:20:56;2.90;;;1.10;;
18188;SDS011;9219;50.396;8.546;2022-07-04T06:23:23;1.93;;;1.30;;
18188;SDS011;9219;50.396;8.546;2022-07-04T06:25:52;5.80;;;1.67;;
18188;SDS011;9219;50.396;8.546;2022-07-04T06:28:20;3.60;;;1.10;;
18188;SDS011;9219;50.396;8.546;2022-07-04T06:31:07;1.67;;;1.50;;
18188;SDS011;9219;50.396;8.546;2022-07-04T06:33:37;3.43;;;1.43;;
18188;SDS011;9219;50.396;8.546;2022-07-04T06:41:24;3.27;;;1.17;;
18188;SDS011;9219;50.396;8.546;2022-07-04T06:43:51;1.90;;;1.47;;
18188;SDS011;9219;50.396;8.546;2022-07-04T06:46:19;1.20;;;1.10;;
18188;SDS011;9219;50.396;8.546;2022-07-04T06:48:46;4.13;;;1.00;;
18188;SDS011;9219;50.396;8.546;2022-07-04T06:51:14;2.73;;;1.20;;
18188;SDS011;9219;50.396;8.546;2022-07-04T06:53:43;1.10;;;1.00;;
18188;SDS011;9219;50.396;8.546;2022-07-04T06:56:11;0.90;;;0.90;;
18188;SDS011;9219;50.396;8.546;2022-07-04T06:58:40;1.63;;;1.03;;
18188;SDS011;9219;50.396;8.546;2022-07-04T07:06:23;5.53;;;1.33;;
18188;SDS011;9219;50.396;8.546;2022-07-04T07:08:51;2.13;;;0.93;;
18188;SDS011;9219;50.396;8.546;2022-07-04T07:11:19;2.97;;;1.00;;
18188;SDS011;9219;50.396;8.546;2022-07-04T07:13:48;2.00;;;1.10;;
18188;SDS011;9219;50.396;8.546;2022-07-04T07:16:19;1.50;;;1.40;;
18188;SDS011;9219;50.396;8.546;2022-07-04T07:18:49;1.27;;;1.10;;
18188;SDS011;9219;50.396;8.546;2022-07-04T07:21:16;4.57;;;1.00;;
18188;SDS011;9219;50.396;8.546;2022-07-04T07:26:23;0.83;;;0.83;;
18188;SDS011;9219;50.396;8.546;2022-07-04T07:28:53;4.23;;;1.03;;
18188;SDS011;9219;50.396;8.546;2022-07-04T07:31:21;0.70;;;0.70;;
18188;SDS011;9219;50.396;8.546;2022-07-04T07:33:48;2.30;;;1.20;;
18188;SDS011;9219;50.396;8.546;2022-07-04T07:36:15;1.70;;;0.90;;
18188;SDS011;9219;50.396;8.546;2022-07-04T07:38:43;3.27;;;1.07;;
18188;SDS011;9219;50.396;8.546;2022-07-04T07:41:10;2.47;;;0.93;;
18188;SDS011;9219;50.396;8.546;2022-07-04T07:46:33;1.60;;;0.87;;
18188;SDS011;9219;50.396;8.546;2022-07-04T07:49:01;3.50;;;0.60;;
18188;SDS011;9219;50.396;8.546;2022-07-04T07:51:29;1.27;;;0.70;;
18188;SDS011;9219;50.396;8.546;2022-07-04T07:53:57;6.90;;;0.87;;
18188;SDS011;9219;50.396;8.546;2022-07-04T07:56:42;2.83;;;0.70;;
18188;SDS011;9219;50.396;8.546;2022-07-04T07:59:09;1.47;;;0.70;;
18188;SDS011;9219;50.396;8.546;2022-07-04T08:01:39;1.10;;;0.77;;
18188;SDS011;9219;50.396;8.546;2022-07-04T08:09:58;2.07;;;0.67;;
18188;SDS011;9219;50.396;8.546;2022-07-04T08:12:25;3.60;;;0.60;;
18188;SDS011;9219;50.396;8.546;2022-07-04T08:14:54;1.77;;;0.90;;
18188;SDS011;9219;50.396;8.546;2022-07-04T08:17:22;1.90;;;0.70;;
18188;SDS011;9219;50.396;8.546;2022-07-04T08:19:50;3.10;;;1.20;;
18188;SDS011;9219;50.396;8.546;2022-07-04T08:22:20;3.70;;;0.90;;
18188;SDS011;9219;50.396;8.546;2022-07-04T08:29:52;0.70;;;0.60;;
18188;SDS011;9219;50.396;8.546;2022-07-04T08:32:19;1.20;;;0.80;;
18188;SDS011;9219;50.396;8.546;2022-07-04T08:34:47;3.23;;;0.83;;
18188;SDS011;9219;50.396;8.546;2022-07-04T08:37:15;2.47;;;0.60;;
18188;SDS011;9219;50.396;8.546;2022-07-04T08:39:42;0.60;;;0.50;;
18188;SDS011;9219;50.396;8.546;2022-07-04T08:42:13;2.00;;;0.93;;
18188;SDS011;9219;50.396;8.546;2022-07-04T08:44:44;2.23;;;0.80;;
18188;SDS011;9219;50.396;8.546;2022-07-04T08:50:35;2.77;;;0.80;;
18188;SDS011;9219;50.396;8.546;2022-07-04T08:53:07;1.23;;;0.77;;
18188;SDS011;9219;50.396;8.546;2022-07-04T08:55:37;1.83;;;0.50;;
18188;SDS011;9219;50.396;8.546;2022-07-04T08:58:23;0.90;;;0.70;;
18188;SDS011;9219;50.396;8.546;2022-07-04T09:00:56;1.73;;;0.70;;
18188;SDS011;9219;50.396;8.546;2022-07-04T09:03:25;2.20;;;0.90;;
18188;SDS011;9219;50.396;8.546;2022-07-04T09:05:55;1.27;;;0.60;;
18188;SDS011;9219;50.396;8.546;2022-07-04T09:21:47;0.97;;;0.60;;
18188;SDS011;9219;50.396;8.546;2022-07-04T09:24:40;3.00;;;0.60;;
18188;SDS011;9219;50.396;8.546;2022-07-04T09:27:29;1.63;;;0.70;;
18188;SDS011;9219;50.396;8.546;2022-07-04T09:29:58;1.17;;;0.50;;
18188;SDS011;9219;50.396;8.546;2022-07-04T09:32:37;0.77;;;0.50;;
18188;SDS011;9219;50.396;8.546;2022-07-04T09:35:16;2.60;;;0.70;;
18188;SDS011;9219;50.396;8.546;2022-07-04T09:37:52;2.03;;;0.80;;
18188;SDS011;9219;50.396;8.546;2022-07-04T09:40:22;2.77;;;0.60;;
18188;SDS011;9219;50.396;8.546;2022-07-04T09:42:51;0.60;;;0.60;;
18188;SDS011;9219;50.396;8.546;2022-07-04T09:45:20;2.77;;;0.93;;
18188;SDS011;9219;50.396;8.546;2022-07-04T10:14:21;1.17;;;0.70;;
18188;SDS011;9219;50.396;8.546;2022-07-04T10:17:35;2.50;;;1.20;;
18188;SDS011;9219;50.396;8.546;2022-07-04T10:20:49;1.07;;;0.70;;
18188;SDS011;9219;50.396;8.546;2022-07-04T10:24:09;2.60;;;0.50;;
18188;SDS011;9219;50.396;8.546;2022-07-04T10:32:20;0.87;;;0.50;;
18188;SDS011;9219;50.396;8.546;2022-07-04T10:33:16;1.33;;;0.90;;
18188;SDS011;9219;50.396;8.546;2022-07-04T10:36:54;2.53;;;0.87;;
18188;SDS011;9219;50.396;8.546;2022-07-04T10:47:04;0.90;;;0.60;;
18188;SDS011;9219;50.396;8.546;2022-07-04T10:49:32;1.80;;;0.57;;
18188;SDS011;9219;50.396;8.546;2022-07-04T10:52:09;1.40;;;0.70;;
18188;SDS011;9219;50.396;8.546;2022-07-04T10:54:39;0.60;;;0.50;;
18188;SDS011;9219;50.396;8.546;2022-07-04T10:57:12;3.37;;;0.67;;
18188;SDS011;9219;50.396;8.546;2022-07-04T11:00:01;1.07;;;0.50;;
18188;SDS011;9219;50.396;8.546;2022-07-04T11:07:59;1.03;;;0.40;;
18188;SDS011;9219;50.396;8.546;2022-07-04T11:10:31;0.93;;;0.60;;
18188;SDS011;9219;50.396;8.546;2022-07-04T11:13:08;0.80;;;0.40;;
18188;SDS011;9219;50.396;8.546;2022-07-04T11:18:38;2.23;;;0.60;;
18188;SDS011;9219;50.396;8.546;2022-07-04T11:21:16;1.00;;;0.57;;
18188;SDS011;9219;50.396;8.546;2022-07-04T11:23:50;0.40;;;0.30;;
18188;SDS011;9219;50.396;8.546;2022-07-04T11:26:22;3.30;;;0.50;;
18188;SDS011;9219;50.396;8.546;2022-07-04T11:33:54;0.40;;;0.40;;
18188;SDS011;9219;50.396;8.546;2022-07-04T11:36:22;0.83;;;0.60;;
18188;SDS011;9219;50.396;8.546;2022-07-04T11:38:52;0.40;;;0.40;;
18188;SDS011;9219;50.396;8.546;2022-07-04T11:41:22;1.00;;;0.60;;
18188;SDS011;9219;50.396;8.546;2022-07-04T11:44:10;1.57;;;0.50;;
18188;SDS011;9219;50.396;8.546;2022-07-04T11:47:03;0.20;;;0.20;;
18188;SDS011;9219;50.396;8.546;2022-07-04T11:49:44;1.37;;;0.40;;
18188;SDS011;9219;50.396;8.546;2022-07-04T11:52:14;0.20;;;0.20;;
18188;SDS011;9219;50.396;8.546;2022-07-04T12:13:40;0.60;;;0.57;;
18188;SDS011;9219;50.396;8.546;2022-07-04T12:16:23;0.87;;;0.40;;
18188;SDS011;9219;50.396;8.546;2022-07-04T12:18:51;0.53;;;0.40;;
18188;SDS011;9219;50.396;8.546;2022-07-04T12:21:30;0.40;;;0.40;;
18188;SDS011;9219;50.396;8.546;2022-07-04T12:24:00;0.60;;;0.40;;
18188;SDS011;9219;50.396;8.546;2022-07-04T12:29:22;0.77;;;0.60;;
18188;SDS011;9219;50.396;8.546;2022-07-04T12:36:09;0.77;;;0.40;;
18188;SDS011;9219;50.396;8.546;2022-07-04T12:38:43;0.50;;;0.50;;
18188;SDS011;9219;50.396;8.546;2022-07-04T12:41:12;1.83;;;0.50;;
18188;SDS011;9219;50.396;8.546;2022-07-04T12:43:45;0.67;;;0.60;;
18188;SDS011;9219;50.396;8.546;2022-07-04T12:46:25;1.50;;;0.57;;
18188;SDS011;9219;50.396;8.546;2022-07-04T12:48:55;1.27;;;0.60;;
18188;SDS011;9219;50.396;8.546;2022-07-04T12:51:25;1.60;;;0.87;;
18188;SDS011;9219;50.396;8.546;2022-07-04T12:53:56;0.77;;;0.43;;
18188;SDS011;9219;50.396;8.546;2022-07-04T13:03:37;3.53;;;1.63;;
18188;SDS011;9219;50.396;8.546;2022-07-04T13:06:05;0.80;;;0.40;;
18188;SDS011;9219;50.396;8.546;2022-07-04T13:08:35;1.27;;;0.43;;
18188;SDS011;9219;50.396;8.546;2022-07-04T13:11:14;1.67;;;0.50;;
18188;SDS011;9219;50.396;8.546;2022-07-04T13:14:23;0.40;;;0.40;;
18188;SDS011;9219;50.396;8.546;2022-07-04T13:16:58;1.30;;;0.50;;
18188;SDS011;9219;50.396;8.546;2022-07-04T13:19:26;1.57;;;0.53;;
18188;SDS011;9219;50.396;8.546;2022-07-04T13:22:02;3.47;;;0.60;;
18188;SDS011;9219;50.396;8.546;2022-07-04T13:24:32;1.20;;;0.40;;
18188;SDS011;9219;50.396;8.546;2022-07-04T13:30:28;2.00;;;0.50;;
18188;SDS011;9219;50.396;8.546;2022-07-04T13:32:57;2.03;;;0.40;;
18188;SDS011;9219;50.396;8.546;2022-07-04T13:35:36;0.40;;;0.40;;
18188;SDS011;9219;50.396;8.546;2022-07-04T13:38:10;1.57;;;0.50;;
18188;SDS011;9219;50.396;8.546;2022-07-04T13:40:42;0.47;;;0.40;;
18188;SDS011;9219;50.396;8.546;2022-07-04T13:43:11;1.83;;;0.57;;
18188;SDS011;9219;50.396;8.546;2022-07-04T13:45:41;0.63;;;0.40;;
18188;SDS011;9219;50.396;8.546;2022-07-04T13:48:14;4.33;;;0.50;;
18188;SDS011;9219;50.396;8.546;2022-07-04T14:06:37;0.90;;;0.43;;
18188;SDS011;9219;50.396;8.546;2022-07-04T14:09:14;1.03;;;0.70;;
18188;SDS011;9219;50.396;8.546;2022-07-04T14:12:03;1.80;;;0.50;;
18188;SDS011;9219;50.396;8.546;2022-07-04T14:14:35;1.13;;;0.40;;
18188;SDS011;9219;50.396;8.546;2022-07-04T14:17:02;1.57;;;0.40;;
18188;SDS011;9219;50.396;8.546;2022-07-04T14:19:58;0.43;;;0.43;;
18188;SDS011;9219;50.396;8.546;2022-07-04T14:22:45;0.60;;;0.47;;
18188;SDS011;9219;50.396;8.546;2022-07-04T14:27:57;0.53;;;0.47;;
18188;SDS011;9219;50.396;8.546;2022-07-04T14:33:28;2.30;;;0.70;;
18188;SDS011;9219;50.396;8.546;2022-07-04T14:35:58;0.97;;;0.60;;
18188;SDS011;9219;50.396;8.546;2022-07-04T14:38:32;1.23;;;0.60;;
18188;SDS011;9219;50.396;8.546;2022-07-04T14:41:01;0.40;;;0.40;;
18188;SDS011;9219;50.396;8.546;2022-07-04T14:43:38;0.63;;;0.43;;
18188;SDS011;9219;50.396;8.546;2022-07-04T14:46:10;3.17;;;0.70;;
18188;SDS011;9219;50.396;8.546;2022-07-04T14:48:44;1.47;;;0.70;;
18188;SDS011;9219;50.396;8.546;2022-07-04T14:56:19;0.67;;;0.50;;
18188;SDS011;9219;50.396;8.546;2022-07-04T14:58:46;1.57;;;0.60;;
18188;SDS011;9219;50.396;8.546;2022-07-04T15:01:16;0.93;;;0.60;;
18188;SDS011;9219;50.396;8.546;2022-07-04T15:03:46;0.50;;;0.50;;
18188;SDS011;9219;50.396;8.546;2022-07-04T15:06:29;1.00;;;0.70;;
18188;SDS011;9219;50.396;8.546;2022-07-04T15:08:56;2.30;;;0.57;;
18188;SDS011;9219;50.396;8.546;2022-07-04T15:11:28;0.67;;;0.50;;
18188;SDS011;9219;50.396;8.546;2022-07-04T15:14:00;3.00;;;0.73;;
18188;SDS011;9219;50.396;8.546;2022-07-04T15:16:28;0.70;;;0.60;;
18188;SDS011;9219;50.396;8.546;2022-07-04T15:24:00;0.57;;;0.40;;
18188;SDS011;9219;50.396;8.546;2022-07-04T15:26:48;0.40;;;0.40;;
18188;SDS011;9219;50.396;8.546;2022-07-04T15:29:21;2.67;;;0.50;;
18188;SDS011;9219;50.396;8.546;2022-07-04T15:32:08;1.60;;;0.50;;
18188;SDS011;9219;50.396;8.546;2022-07-04T15:34:37;0.60;;;0.60;;
18188;SDS011;9219;50.396;8.546;2022-07-04T15:37:25;1.67;;;0.50;;
18188;SDS011;9219;50.396;8.546;2022-07-04T15:40:00;1.33;;;0.60;;
18188;SDS011;9219;50.396;8.546;2022-07-04T15:42:36;1.87;;;0.70;;
18188;SDS011;9219;50.396;8.546;2022-07-04T15:53:02;2.60;;;0.90;;
18188;SDS011;9219;50.396;8.546;2022-07-04T15:55:33;3.80;;;0.60;;
18188;SDS011;9219;50.396;8.546;2022-07-04T15:58:04;1.97;;;1.10;;
18188;SDS011;9219;50.396;8.546;2022-07-04T16:00:33;0.50;;;0.40;;
18188;SDS011;9219;50.396;8.546;2022-07-04T16:03:02;0.80;;;0.80;;
18188;SDS011;9219;50.396;8.546;2022-07-04T16:05:30;0.87;;;0.63;;
18188;SDS011;9219;50.396;8.546;2022-07-04T16:07:58;2.27;;;0.90;;
18188;SDS011;9219;50.396;8.546;2022-07-04T16:18:06;1.17;;;0.77;;
18188;SDS011;9219;50.396;8.546;2022-07-04T16:20:35;1.00;;;0.53;;
18188;SDS011;9219;50.396;8.546;2022-07-04T16:23:03;0.80;;;0.80;;
18188;SDS011;9219;50.396;8.546;2022-07-04T16:25:31;2.13;;;0.80;;
18188;SDS011;9219;50.396;8.546;2022-07-04T16:28:01;0.90;;;0.70;;
18188;SDS011;9219;50.396;8.546;2022-07-04T16:30:30;2.30;;;0.80;;
18188;SDS011;9219;50.396;8.546;2022-07-04T16:32:58;1.40;;;0.87;;
18188;SDS011;9219;50.396;8.546;2022-07-04T16:35:28;1.00;;;0.80;;
18188;SDS011;9219;50.396;8.546;2022-07-04T16:40:55;2.70;;;0.60;;
18188;SDS011;9219;50.396;8.546;2022-07-04T16:43:27;0.87;;;0.80;;
18188;SDS011;9219;50.396;8.546;2022-07-04T16:45:58;2.07;;;0.73;;
18188;SDS011;9219;50.396;8.546;2022-07-04T16:48:26;3.77;;;0.73;;
18188;SDS011;9219;50.396;8.546;2022-07-04T16:50:54;3.30;;;0.70;;
18188;SDS011;9219;50.396;8.546;2022-07-04T16:53:22;7.40;;;0.70;;
18188;SDS011;9219;50.396;8.546;2022-07-04T16:55:50;0.70;;;0.60;;
18188;SDS011;9219;50.396;8.546;2022-07-04T17:03:09;3.80;;;0.70;;
18188;SDS011;9219;50.396;8.546;2022-07-04T17:05:38;5.50;;;0.90;;
18188;SDS011;9219;50.396;8.546;2022-07-04T17:08:06;2.10;;;0.70;;
18188;SDS011;9219;50.396;8.546;2022-07-04T17:10:34;2.43;;;0.87;;
18188;SDS011;9219;50.396;8.546;2022-07-04T17:13:02;1.47;;;0.70;;
18188;SDS011;9219;50.396;8.546;2022-07-04T17:15:36;1.43;;;0.80;;
18188;SDS011;9219;50.396;8.546;2022-07-04T17:18:04;2.10;;;0.80;;
18188;SDS011;9219;50.396;8.546;2022-07-04T17:23:26;2.40;;;0.70;;
18188;SDS011;9219;50.396;8.546;2022-07-04T17:25:59;1.90;;;0.87;;
18188;SDS011;9219;50.396;8.546;2022-07-04T17:28:29;4.10;;;1.27;;
18188;SDS011;9219;50.396;8.546;2022-07-04T17:30:57;2.17;;;0.67;;
18188;SDS011;9219;50.396;8.546;2022-07-04T17:33:26;1.30;;;0.70;;
18188;SDS011;9219;50.396;8.546;2022-07-04T17:35:56;3.00;;;0.70;;
18188;SDS011;9219;50.396;8.546;2022-07-04T17:38:28;3.73;;;0.90;;
18188;SDS011;9219;50.396;8.546;2022-07-04T17:45:24;3.50;;;0.80;;
18188;SDS011;9219;50.396;8.546;2022-07-04T17:47:51;0.83;;;0.60;;
18188;SDS011;9219;50.396;8.546;2022-07-04T17:50:22;3.50;;;0.77;;
18188;SDS011;9219;50.396;8.546;2022-07-04T17:52:49;8.27;;;1.57;;
18188;SDS011;9219;50.396;8.546;2022-07-04T17:55:18;1.13;;;0.80;;
18188;SDS011;9219;50.396;8.546;2022-07-04T17:57:48;3.37;;;0.80;;
18188;SDS011;9219;50.396;8.546;2022-07-04T18:00:16;3.37;;;1.47;;
18188;SDS011;9219;50.396;8.546;2022-07-04T18:07:21;1.60;;;0.97;;
18188;SDS011;9219;50.396;8.546;2022-07-04T18:09:50;3.07;;;1.03;;
18188;SDS011;9219;50.396;8.546;2022-07-04T18:12:21;1.30;;;0.70;;
18188;SDS011;9219;50.396;8.546;2022-07-04T18:14:55;4.73;;;1.13;;
18188;SDS011;9219;50.396;8.546;2022-07-04T18:17:22;1.03;;;0.80;;
18188;SDS011;9219;50.396;8.546;2022-07-04T18:19:52;0.70;;;0.70;;
18188;SDS011;9219;50.396;8.546;2022-07-04T18:22:23;2.47;;;1.03;;
18188;SDS011;9219;50.396;8.546;2022-07-04T18:29:36;2.47;;;0.83;;
18188;SDS011;9219;50.396;8.546;2022-07-04T18:32:05;0.70;;;0.70;;
18188;SDS011;9219;50.396;8.546;2022-07-04T18:34:34;1.30;;;0.80;;
18188;SDS011;9219;50.396;8.546;2022-07-04T18:37:03;3.53;;;0.80;;
18188;SDS011;9219;50.396;8.546;2022-07-04T18:39:31;3.63;;;0.93;;
18188;SDS011;9219;50.396;8.546;2022-07-04T18:41:59;1.53;;;0.90;;
18188;SDS011;9219;50.396;8.546;2022-07-04T18:44:47;2.43;;;0.80;;
18188;SDS011;9219;50.396;8.546;2022-07-04T18:47:15;4.00;;;0.70;;
18188;SDS011;9219;50.396;8.546;2022-07-04T18:52:23;1.03;;;0.63;;
18188;SDS011;9219;50.396;8.546;2022-07-04T18:54:54;1.37;;;1.10;;
18188;SDS011;9219;50.396;8.546;2022-07-04T18:57:26;1.27;;;0.80;;
18188;SDS011;9219;50.396;8.546;2022-07-04T19:00:05;3.93;;;0.80;;
18188;SDS011;9219;50.396;8.546;2022-07-04T19:02:44;0.97;;;0.80;;
18188;SDS011;9219;50.396;8.546;2022-07-04T19:05:15;0.80;;;0.80;;
18188;SDS011;9219;50.396;8.546;2022-07-04T19:07:46;0.90;;;0.80;;
18188;SDS011;9219;50.396;8.546;2022-07-04T19:12:54;0.57;;;0.50;;
18188;SDS011;9219;50.396;8.546;2022-07-04T19:15:25;4.03;;;1.77;;
18188;SDS011;9219;50.396;8.546;2022-07-04T19:17:58;4.50;;;0.80;;
18188;SDS011;9219;50.396;8.546;2022-07-04T19:20:27;2.40;;;0.90;;
18188;SDS011;9219;50.396;8.546;2022-07-04T19:23:01;1.13;;;0.80;;
18188;SDS011;9219;50.396;8.546;2022-07-04T19:25:32;3.73;;;1.10;;
18188;SDS011;9219;50.396;8.546;2022-07-04T19:33:42;1.33;;;0.90;;
18188;SDS011;9219;50.396;8.546;2022-07-04T19:36:11;1.10;;;0.90;;
18188;SDS011;9219;50.396;8.546;2022-07-04T19:38:43;0.60;;;0.60;;
18188;SDS011;9219;50.396;8.546;2022-07-04T19:41:11;0.97;;;0.60;;
18188;SDS011;9219;50.396;8.546;2022-07-04T19:43:39;1.67;;;1.20;;
18188;SDS011;9219;50.396;8.546;2022-07-04T19:46:08;1.73;;;0.80;;
18188;SDS011;9219;50.396;8.546;2022-07-04T19:48:36;1.03;;;0.70;;
18188;SDS011;9219;50.396;8.546;2022-07-04T19:51:21;1.17;;;0.83;;
18188;SDS011;9219;50.396;8.546;2022-07-04T19:53:53;3.10;;;0.97;;
18188;SDS011;9219;50.396;8.546;2022-07-04T19:56:21;2.13;;;1.00;;
18188;SDS011;9219;50.396;8.546;2022-07-04T19:58:53;1.33;;;0.77;;
18188;SDS011;9219;50.396;8.546;2022-07-04T20:01:20;1.20;;;0.90;;
18188;SDS011;9219;50.396;8.546;2022-07-04T20:03:48;1.33;;;0.97;;
18188;SDS011;9219;50.396;8.546;2022-07-04T20:06:17;0.80;;;0.80;;
18188;SDS011;9219;50.396;8.546;2022-07-04T20:13:52;1.20;;;0.87;;
18188;SDS011;9219;50.396;8.546;2022-07-04T20:16:21;1.37;;;0.63;;
18188;SDS011;9219;50.396;8.546;2022-07-04T20:18:52;1.37;;;0.80;;
18188;SDS011;9219;50.396;8.546;2022-07-04T20:21:20;1.37;;;0.80;;
18188;SDS011;9219;50.396;8.546;2022-07-04T20:23:48;3.00;;;0.87;;